Time;durP1;ratioP1;P1;durP2;ratioP2;P2;SDS_P1;SDS_P2;PMS_P1;PMS_P2;Temp;Humidity;BMP_temperature;BMP_pressure;BME280_temperature;BME280_humidity;BME280_pressure;Samples;Min_cycle;Max_cycle;Signal;HPM_P1;HPM_P2
2021/08/11 00:02:59;;;;;;;2.38;1.20;;;;;;;11.60;100.00;99993.47;5005470;28;20108;-74
2021/08/11 00:06:02;;;;;;;11.65;1.20;;;;;;;11.51;100.00;100001.91;5011456;28;20072;-73
2021/08/11 00:09:05;;;;;;;9.60;1.45;;;;;;;11.44;100.00;100003.06;5011581;28;20061;-74
2021/08/11 00:12:08;;;;;;;1.60;0.77;;;;;;;11.36;100.00;100001.91;5010717;28;20052;-74
2021/08/11 00:15:11;;;;;;;1.27;0.60;;;;;;;11.35;100.00;100012.28;5011593;28;20088;-74
2021/08/11 00:18:15;;;;;;;3.47;0.95;;;;;;;11.35;100.00;100005.91;5011402;28;20111;-74
2021/08/11 00:21:18;;;;;;;4.30;0.60;;;;;;;11.39;100.00;100012.13;5010914;28;20140;-74
2021/08/11 00:24:21;;;;;;;5.25;1.15;;;;;;;11.31;100.00;100017.28;5011401;28;20203;-74
2021/08/11 00:27:24;;;;;;;1.60;0.70;;;;;;;11.31;100.00;100011.69;5011209;28;20057;-74
2021/08/11 00:30:27;;;;;;;1.33;0.40;;;;;;;11.31;100.00;100005.34;5010984;28;20463;-74
2021/08/11 00:33:31;;;;;;;4.70;1.05;;;;;;;11.37;100.00;99998.63;5011036;28;20057;-74
2021/08/11 00:36:34;;;;;;;3.15;0.60;;;;;;;11.38;100.00;99994.59;5010662;28;20058;-73
2021/08/11 00:39:39;;;;;;;1.75;0.85;;;;;;;11.39;100.00;99984.22;5010404;28;20073;-73
2021/08/11 00:42:42;;;;;;;3.90;1.40;;;;;;;11.42;100.00;99986.03;5011488;28;20073;-74
2021/08/11 00:45:45;;;;;;;4.47;0.77;;;;;;;11.35;100.00;99978.03;5010870;28;20133;-74
2021/08/11 00:48:49;;;;;;;3.30;0.88;;;;;;;11.32;100.00;99967.88;5010671;28;20423;-74
2021/08/11 00:51:52;;;;;;;1.73;0.82;;;;;;;11.26;100.00;99964.19;5010717;28;20056;-73
2021/08/11 00:54:57;;;;;;;2.25;0.50;;;;;;;11.26;100.00;99964.19;5010652;28;20178;-73
2021/08/11 00:58:00;;;;;;;0.80;0.32;;;;;;;11.25;100.00;99963.44;5010575;28;20057;-73
2021/08/11 01:01:03;;;;;;;4.18;0.60;;;;;;;11.28;100.00;99964.50;5010478;28;20056;-73
2021/08/11 01:04:10;;;;;;;5.88;1.15;;;;;;;11.34;100.00;99965.38;5005791;28;20060;-73
2021/08/11 01:07:19;;;;;;;5.88;1.10;;;;;;;11.28;100.00;99967.28;5006978;28;20060;-73
2021/08/11 01:10:22;;;;;;;2.03;1.08;;;;;;;11.32;100.00;99967.88;5010365;28;20061;-74
2021/08/11 01:13:25;;;;;;;23.33;1.95;;;;;;;11.31;100.00;99975.44;5010853;28;20060;-74
2021/08/11 01:16:28;;;;;;;3.83;1.17;;;;;;;11.27;100.00;99977.66;5011062;28;20189;-74
2021/08/11 01:19:31;;;;;;;3.25;1.17;;;;;;;11.24;100.00;99969.50;5010853;28;20396;-74
2021/08/11 01:22:56;;;;;;;1.63;0.98;;;;;;;11.25;100.00;99968.22;5010813;28;20511;-73
2021/08/11 01:26:13;;;;;;;3.40;1.75;;;;;;;11.20;100.00;99966.88;5010830;28;20061;-74
2021/08/11 01:29:19;;;;;;;1.30;0.77;;;;;;;11.22;100.00;99958.03;5007813;28;20123;-74
2021/08/11 01:32:32;;;;;;;3.08;1.40;;;;;;;11.28;100.00;99967.28;5009878;28;20052;-74
2021/08/11 01:35:40;;;;;;;2.22;0.70;;;;;;;11.33;100.00;99963.81;5009985;28;20193;-74
2021/08/11 01:38:50;;;;;;;2.65;0.93;;;;;;;11.41;100.00;99959.41;5010699;28;20053;-74
2021/08/11 01:41:59;;;;;;;1.33;0.90;;;;;;;11.46;100.00;99964.31;5010826;28;20061;-74
2021/08/11 01:45:12;;;;;;;2.05;1.20;;;;;;;11.52;100.00;99959.59;5005083;28;20061;-75
2021/08/11 01:48:21;;;;;;;2.10;0.80;;;;;;;11.55;100.00;99964.22;5007147;28;20104;-74
2021/08/11 01:51:24;;;;;;;4.57;0.82;;;;;;;11.62;100.00;99963.09;5013401;28;20103;-74
2021/08/11 01:54:27;;;;;;;4.35;1.63;;;;;;;11.60;100.00;99969.16;5013572;28;20061;-74
2021/08/11 01:57:31;;;;;;;9.23;2.00;;;;;;;11.69;100.00;99971.88;5013284;28;20485;-74
2021/08/11 02:00:35;;;;;;;5.68;1.38;;;;;;;11.73;100.00;99972.47;5013412;28;20136;-74
2021/08/11 02:03:39;;;;;;;2.38;1.40;;;;;;;11.72;100.00;99968.13;5013726;28;20104;-71
2021/08/11 02:06:44;;;;;;;10.48;1.27;;;;;;;11.68;100.00;99966.75;5013377;28;20065;-73
2021/08/11 02:09:48;;;;;;;1.38;1.00;;;;;;;11.63;100.00;99968.19;5013150;28;20057;-73
2021/08/11 02:12:51;;;;;;;2.03;0.95;;;;;;;11.53;100.00;99966.72;5013512;28;20089;-72
2021/08/11 02:15:54;;;;;;;3.15;0.73;;;;;;;11.47;100.00;99962.31;5013334;28;20145;-72
2021/08/11 02:18:58;;;;;;;2.28;0.47;;;;;;;11.38;100.00;99977.09;5013777;28;20065;-72
2021/08/11 02:22:01;;;;;;;3.13;1.13;;;;;;;11.29;100.00;99982.75;5013834;28;20136;-73
2021/08/11 02:25:07;;;;;;;3.33;0.93;;;;;;;11.23;100.00;99981.88;5008120;28;20127;-72
2021/08/11 02:28:17;;;;;;;3.75;1.45;;;;;;;11.16;100.00;99968.28;5008396;28;20061;-73
2021/08/11 02:31:43;;;;;;;1.65;0.70;;;;;;;11.11;100.00;99974.53;5012452;28;20133;-73
2021/08/11 02:34:58;;;;;;;1.90;1.20;;;;;;;10.99;100.00;99975.53;5005512;28;20111;-73
2021/08/11 02:38:16;;;;;;;2.00;1.15;;;;;;;10.93;100.00;99975.44;5013335;28;20085;-72
2021/08/11 02:41:23;;;;;;;1.52;0.70;;;;;;;10.91;100.00;99971.59;5012804;28;20115;-73
2021/08/11 02:44:35;;;;;;;2.33;1.35;;;;;;;10.84;100.00;99963.59;5013318;28;20392;-73
2021/08/11 02:47:40;;;;;;;3.80;0.40;;;;;;;10.81;100.00;99956.94;5012941;28;20104;-72
2021/08/11 02:50:44;;;;;;;1.95;1.00;;;;;;;10.79;100.00;99950.28;5004913;28;20104;-73
2021/08/11 02:53:47;;;;;;;4.32;1.60;;;;;;;10.83;100.00;99953.69;5013060;28;20462;-72
2021/08/11 02:56:50;;;;;;;4.13;1.13;;;;;;;10.83;100.00;99948.13;5005830;28;20060;-72
2021/08/11 02:59:54;;;;;;;2.03;0.65;;;;;;;10.87;100.00;99945.94;5012398;28;20147;-72
2021/08/11 03:02:57;;;;;;;1.67;0.40;;;;;;;10.94;100.00;99948.34;5006499;28;20408;-72
2021/08/11 03:06:00;;;;;;;3.03;0.73;;;;;;;10.89;100.00;99949.00;5012515;28;20157;-73
2021/08/11 03:09:05;;;;;;;1.25;0.60;;;;;;;10.89;100.00;99947.00;5007488;28;20065;-73
2021/08/11 03:12:10;;;;;;;2.72;1.33;;;;;;;10.88;100.00;99947.44;5011945;28;20557;-72
2021/08/11 03:15:15;;;;;;;1.88;0.68;;;;;;;10.81;100.00;99942.22;5008435;28;20416;-73
2021/08/11 03:18:19;;;;;;;3.53;1.05;;;;;;;10.84;100.00;99944.09;5011573;28;20112;-73
2021/08/11 03:21:21;;;;;;;2.33;1.02;;;;;;;10.80;100.00;99960.22;5012279;28;20077;-73
2021/08/11 03:24:25;;;;;;;1.35;0.70;;;;;;;10.81;100.00;99956.94;5011976;28;20184;-72
2021/08/11 03:27:28;;;;;;;2.80;1.08;;;;;;;10.82;100.00;99960.50;5012383;28;20057;-72
2021/08/11 03:30:31;;;;;;;4.30;1.25;;;;;;;10.82;100.00;99972.41;5012136;28;20391;-73
2021/08/11 03:33:34;;;;;;;1.35;0.88;;;;;;;10.80;100.00;99971.34;5012357;28;20053;-72
2021/08/11 03:36:37;;;;;;;3.30;0.98;;;;;;;10.80;100.00;99966.56;5011665;28;20127;-72
2021/08/11 03:39:41;;;;;;;3.50;1.50;;;;;;;10.79;100.00;99964.22;5012088;28;20149;-73
2021/08/11 03:42:44;;;;;;;3.30;0.95;;;;;;;10.81;100.00;99968.09;5004263;28;20064;-72
2021/08/11 03:45:47;;;;;;;2.17;0.82;;;;;;;10.81;100.00;99956.94;5011957;28;20077;-72
2021/08/11 03:48:50;;;;;;;10.10;0.40;;;;;;;10.84;100.00;99958.78;5004857;28;20628;-72
2021/08/11 03:51:53;;;;;;;3.40;1.00;;;;;;;10.84;100.00;99960.78;5011965;28;20117;-73
2021/08/11 03:54:56;;;;;;;1.90;1.40;;;;;;;10.85;100.00;99962.34;5004969;28;20092;-72
2021/08/11 03:58:00;;;;;;;1.38;0.60;;;;;;;10.87;100.00;99959.84;5010939;28;20462;-72
2021/08/11 04:01:03;;;;;;;3.60;0.90;;;;;;;10.91;100.00;99961.22;5005710;28;20069;-72
2021/08/11 04:04:06;;;;;;;2.35;0.73;;;;;;;10.95;100.00;99958.25;5006924;28;20119;-72
2021/08/11 04:07:09;;;;;;;2.85;0.80;;;;;;;10.97;100.00;99964.09;5011424;28;20136;-72
2021/08/11 04:10:12;;;;;;;1.67;0.52;;;;;;;11.00;100.00;99963.16;5008178;28;20115;-72
2021/08/11 04:13:16;;;;;;;2.35;1.13;;;;;;;11.01;100.00;99959.13;4991547;28;20065;-72
2021/08/11 04:16:19;;;;;;;6.05;1.23;;;;;;;11.03;100.00;99956.63;4990801;28;20404;-73
2021/08/11 04:19:22;;;;;;;2.78;1.00;;;;;;;11.00;100.00;99957.59;4991820;28;20061;-72
2021/08/11 04:22:25;;;;;;;3.67;1.23;;;;;;;11.00;100.00;99957.59;4992148;28;20405;-72
2021/08/11 04:25:29;;;;;;;1.40;0.70;;;;;;;11.03;100.00;99956.63;4991885;28;20069;-72
2021/08/11 04:28:31;;;;;;;11.45;0.77;;;;;;;11.05;100.00;99962.50;4991964;28;20069;-72
2021/08/11 04:31:34;;;;;;;1.38;0.80;;;;;;;11.08;100.00;99951.19;4992852;28;20065;-72
2021/08/11 04:34:37;;;;;;;5.22;1.42;;;;;;;11.06;100.00;99953.69;5011132;28;20122;-72
2021/08/11 04:37:40;;;;;;;3.05;0.88;;;;;;;11.03;100.00;99945.47;5010765;28;20116;-72
2021/08/11 04:40:45;;;;;;;3.45;1.05;;;;;;;11.10;100.00;99942.34;5011701;28;20115;-72
2021/08/11 04:43:48;;;;;;;1.63;0.93;;;;;;;11.10;100.00;99945.13;5004353;28;20056;-72
2021/08/11 04:46:51;;;;;;;2.85;0.38;;;;;;;11.09;100.00;99944.34;5011158;28;20656;-73
2021/08/11 04:49:54;;;;;;;3.38;0.85;;;;;;;11.12;100.00;99945.41;5003753;28;20053;-73
2021/08/11 04:52:57;;;;;;;2.08;0.80;;;;;;;11.18;100.00;99935.13;4996537;28;20109;-74
2021/08/11 04:56:00;;;;;;;1.77;0.52;;;;;;;11.19;100.00;99936.69;4990722;28;20109;-73
2021/08/11 04:59:03;;;;;;;1.60;0.47;;;;;;;11.21;100.00;99931.41;4988601;28;20109;-74
2021/08/11 05:02:06;;;;;;;3.60;0.68;;;;;;;11.19;100.00;99926.31;5001459;28;20108;-72
2021/08/11 05:05:10;;;;;;;0.82;0.82;;;;;;;11.15;100.00;99936.09;5001908;28;20065;-72
2021/08/11 05:08:13;;;;;;;1.17;0.60;;;;;;;11.21;100.00;99926.59;4991210;28;20073;-72
2021/08/11 05:11:16;;;;;;;1.92;0.90;;;;;;;11.24;100.00;99933.25;4991725;28;20455;-73
2021/08/11 05:14:19;;;;;;;2.92;0.98;;;;;;;11.30;100.00;99942.47;4990924;28;20065;-73
2021/08/11 05:17:22;;;;;;;0.75;0.38;;;;;;;11.28;100.00;99945.72;4991647;28;20062;-73
2021/08/11 05:20:25;;;;;;;2.67;1.10;;;;;;;11.27;100.00;99951.78;4991091;28;20112;-73
2021/08/11 05:23:28;;;;;;;2.50;0.77;;;;;;;11.34;100.00;99946.63;5002117;28;20053;-73
2021/08/11 05:26:32;;;;;;;7.03;0.85;;;;;;;11.37;100.00;99953.25;5009966;28;20587;-73
2021/08/11 05:29:35;;;;;;;2.22;0.70;;;;;;;11.41;100.00;99951.06;5014725;28;20090;-73
2021/08/11 05:32:38;;;;;;;1.92;0.63;;;;;;;11.48;100.00;99953.44;5014233;28;20464;-73
2021/08/11 05:35:41;;;;;;;2.25;1.00;;;;;;;11.48;100.00;99959.03;5014382;28;20061;-73
2021/08/11 05:38:44;;;;;;;2.40;0.90;;;;;;;11.52;100.00;99965.19;5014179;28;20567;-73
2021/08/11 05:41:47;;;;;;;1.45;0.60;;;;;;;11.54;100.00;99968.28;5010225;28;20393;-73
2021/08/11 05:44:50;;;;;;;2.58;0.98;;;;;;;11.69;100.00;99957.94;5003817;28;20065;-73
2021/08/11 05:47:53;;;;;;;2.20;0.70;;;;;;;11.78;100.00;99960.59;5003856;28;20160;-73
2021/08/11 05:50:56;;;;;;;1.27;0.85;;;;;;;11.83;100.00;99965.53;4997861;28;20049;-74
2021/08/11 05:54:04;;;;;;;2.90;0.90;;;;;;;11.87;100.00;99952.16;5004539;28;20060;-73
2021/08/11 05:57:08;;;;;;;1.65;0.55;;;;;;;12.00;100.00;99946.25;5011675;28;20077;-73
2021/08/11 06:00:11;;;;;;;3.33;0.95;;;;;;;12.09;100.00;99962.91;5005436;28;20056;-73
2021/08/11 06:03:15;;;;;;;9.52;0.65;;;;;;;12.18;100.00;99955.19;4990596;28;20058;-73
2021/08/11 06:06:17;;;;;;;6.85;0.82;;;;;;;12.30;100.00;99949.78;4999655;28;20107;-73
2021/08/11 06:09:20;;;;;;;1.52;0.65;;;;;;;12.32;100.00;99947.28;5013872;28;20081;-73
2021/08/11 06:12:23;;;;;;;2.95;0.98;;;;;;;12.42;100.00;99957.06;5004831;28;20511;-73
2021/08/11 06:15:27;;;;;;;1.30;0.30;;;;;;;12.52;100.00;99956.44;5004270;28;20550;-73
2021/08/11 06:18:30;;;;;;;1.35;0.55;;;;;;;12.66;100.00;99961.25;5004357;28;20101;-73
2021/08/11 06:21:33;;;;;;;2.05;1.33;;;;;;;12.74;100.00;99953.19;5008175;28;20104;-73
2021/08/11 06:24:36;;;;;;;3.05;1.17;;;;;;;12.84;100.00;99965.81;5009393;28;20108;-73
2021/08/11 06:27:39;;;;;;;1.88;0.65;;;;;;;12.90;100.00;99966.63;5008380;28;20057;-73
2021/08/11 06:30:42;;;;;;;2.55;1.00;;;;;;;13.07;100.00;99966.88;5011695;28;20096;-73
2021/08/11 06:33:45;;;;;;;1.50;0.68;;;;;;;13.17;100.00;99965.44;5005577;28;20068;-73
2021/08/11 06:36:48;;;;;;;3.00;1.00;;;;;;;13.27;100.00;99964.84;5012454;28;20067;-73
2021/08/11 06:39:52;;;;;;;1.85;0.35;;;;;;;13.45;100.00;99972.91;5013414;28;20057;-73
2021/08/11 06:42:54;;;;;;;1.48;0.70;;;;;;;13.60;100.00;99970.78;5013283;28;20556;-73
2021/08/11 06:45:57;;;;;;;0.73;0.40;;;;;;;13.79;100.00;99962.81;5013034;28;20065;-73
2021/08/11 06:49:00;;;;;;;1.77;0.20;;;;;;;13.91;100.00;99960.88;5012786;28;20065;-73
2021/08/11 06:52:04;;;;;;;6.60;0.40;;;;;;;14.04;100.00;99955.66;5007746;28;20076;-73
2021/08/11 06:55:09;;;;;;;1.70;0.30;;;;;;;14.17;100.00;99956.00;5008711;28;20080;-73
2021/08/11 06:58:12;;;;;;;1.40;0.73;;;;;;;14.24;100.00;99949.97;5009017;28;20073;-73
2021/08/11 07:01:15;;;;;;;1.10;0.50;;;;;;;14.34;100.00;99954.13;5012535;28;20108;-73
2021/08/11 07:04:18;;;;;;;1.60;0.80;;;;;;;14.37;100.00;99961.53;5011883;28;20060;-73
2021/08/11 07:07:21;;;;;;;2.08;0.50;;;;;;;14.32;100.00;99954.63;4992928;28;20092;-73
2021/08/11 07:10:24;;;;;;;1.30;0.40;;;;;;;14.34;100.00;99954.13;4992845;28;20061;-73
2021/08/11 07:13:27;;;;;;;1.05;0.52;;;;;;;14.31;100.00;99946.72;4993001;28;20104;-73
2021/08/11 07:16:30;;;;;;;1.17;0.65;;;;;;;14.25;100.00;99952.25;4992218;28;20057;-73
2021/08/11 07:19:33;;;;;;;5.20;0.30;;;;;;;14.41;100.00;99954.44;5000498;28;20053;-73
2021/08/11 07:22:36;;;;;;;2.28;0.40;;;;;;;14.60;100.00;99943.59;5009260;28;20103;-73
2021/08/11 07:25:40;;;;;;;1.92;0.55;;;;;;;14.63;100.00;99948.22;5000767;28;20057;-73
2021/08/11 07:28:43;;;;;;;0.35;0.30;;;;;;;14.74;100.00;99945.47;4997688;28;20068;-72
2021/08/11 07:31:46;;;;;;;0.85;0.60;;;;;;;14.73;100.00;99946.72;4992688;28;20052;-73
2021/08/11 07:34:49;;;;;;;1.52;0.52;;;;;;;14.75;100.00;99932.97;4992362;28;20116;-72
2021/08/11 07:37:55;;;;;;;4.03;0.68;;;;;;;14.84;100.00;99935.56;4992450;28;20057;-73
2021/08/11 07:40:58;;;;;;;2.05;0.50;;;;;;;15.04;100.00;99951.47;4992669;28;20061;-73
2021/08/11 07:44:01;;;;;;;2.00;0.43;;;;;;;15.25;100.00;99949.22;4992844;28;20456;-72
2021/08/11 07:47:04;;;;;;;2.08;0.50;;;;;;;15.51;100.00;99953.41;4992509;28;20124;-73
2021/08/11 07:50:08;;;;;;;2.47;0.60;;;;;;;15.68;100.00;99939.44;4992018;28;21101;-73
2021/08/11 07:53:11;;;;;;;0.60;0.30;;;;;;;15.83;100.00;99935.06;5003006;28;20542;-73
2021/08/11 07:56:15;;;;;;;2.20;0.55;;;;;;;15.79;100.00;99942.22;5011661;28;20116;-72
2021/08/11 07:59:17;;;;;;;1.38;0.15;;;;;;;15.79;100.00;99934.56;5010480;28;20100;-73
2021/08/11 08:02:20;;;;;;;1.95;0.85;;;;;;;15.93;100.00;99941.22;5010885;28;20464;-73
2021/08/11 08:05:24;;;;;;;0.73;0.20;;;;;;;15.99;100.00;99930.75;5010972;28;20057;-72
2021/08/11 08:08:27;;;;;;;2.63;1.10;;;;;;;16.08;100.00;99933.31;5011486;28;20096;-72
2021/08/11 08:11:30;;;;;;;1.17;0.50;;;;;;;16.11;100.00;99931.53;5011657;28;20507;-72
2021/08/11 08:14:33;;;;;;;2.38;0.40;;;;;;;16.05;100.00;99931.50;5011618;28;20089;-72
2021/08/11 08:17:36;;;;;;;4.90;0.38;;;;;;;16.07;100.00;99937.38;5011481;28;20120;-72
2021/08/11 08:20:39;;;;;;;1.85;0.40;;;;;;;16.31;100.00;99934.03;5011162;28;20053;-73
2021/08/11 08:23:42;;;;;;;1.70;0.40;;;;;;;16.49;100.00;99939.91;5003405;28;20065;-73
2021/08/11 08:26:47;;;;;;;0.75;0.43;;;;;;;16.59;100.00;99935.56;4994851;28;20057;-73
2021/08/11 08:29:51;;;;;;;1.83;0.60;;;;;;;16.42;100.00;99931.97;4980258;28;20153;-74
2021/08/11 08:32:54;;;;;;;2.85;0.30;;;;;;;16.29;100.00;99926.13;4974214;28;20159;-73
2021/08/11 08:35:57;;;;;;;0.85;0.50;;;;;;;16.02;100.00;99928.97;4991408;28;20064;-72
2021/08/11 08:39:00;;;;;;;2.75;0.70;;;;;;;16.03;100.00;99934.06;5005913;28;20112;-72
2021/08/11 08:42:05;;;;;;;1.58;0.47;;;;;;;15.97;100.00;99933.31;5010968;28;20061;-73
2021/08/11 08:45:10;;;;;;;0.65;0.40;;;;;;;16.01;100.00;99933.81;5011184;28;20120;-72
2021/08/11 08:48:13;;;;;;;3.85;0.70;;;;;;;16.38;100.00;99925.84;5010249;28;20451;-72
2021/08/11 08:51:17;;;;;;;7.70;0.40;;;;;;;16.64;100.00;99923.53;5007544;28;20061;-72
2021/08/11 08:54:25;;;;;;;4.68;1.05;;;;;;;16.88;100.00;99914.50;5009140;28;20478;-73
2021/08/11 08:57:28;;;;;;;1.13;0.30;;;;;;;17.11;100.00;99910.28;5009489;28;20076;-72
2021/08/11 09:00:35;;;;;;;0.45;0.30;;;;;;;17.14;100.00;99908.50;5011789;28;20068;-72
2021/08/11 09:03:38;;;;;;;2.15;0.50;;;;;;;17.23;100.00;99906.16;5011804;28;20073;-74
2021/08/11 09:06:41;;;;;;;1.75;0.30;;;;;;;17.37;100.00;99901.44;5011215;28;20116;-74
2021/08/11 09:09:45;;;;;;;2.28;0.95;;;;;;;17.36;100.00;99905.56;5012349;28;20149;-73
2021/08/11 09:12:51;;;;;;;1.20;0.15;;;;;;;17.33;100.00;99898.16;5012544;28;20065;-72
2021/08/11 09:16:04;;;;;;;1.90;0.65;;;;;;;17.49;100.00;99894.47;5014788;28;20081;-72
2021/08/11 09:19:08;;;;;;;4.05;0.52;;;;;;;17.69;100.00;99894.09;5010119;28;20108;-74
2021/08/11 09:22:15;;;;;;;1.15;0.20;;;;;;;17.99;100.00;99894.88;5010570;28;20057;-72
2021/08/11 09:25:20;;;;;;;0.90;0.20;;;;;;;18.35;100.00;99889.13;5011032;28;20112;-72
2021/08/11 09:28:23;;;;;;;4.38;0.40;;;;;;;18.55;100.00;99902.81;5014425;28;20416;-72
2021/08/11 09:31:31;;;;;;;2.75;0.35;;;;;;;18.69;100.00;99904.47;5014356;28;20408;-72
2021/08/11 09:34:43;;;;;;;1.17;0.03;;;;;;;19.07;100.00;99896.78;5014249;28;20064;-72
2021/08/11 09:37:48;;;;;;;3.55;0.55;;;;;;;19.21;100.00;99882.22;5014124;28;20204;-72
2021/08/11 09:40:51;;;;;;;1.83;0.70;;;;;;;18.99;100.00;99879.72;5010039;28;20060;-72
2021/08/11 09:44:04;;;;;;;2.55;0.50;;;;;;;19.25;100.00;99879.84;5014450;28;20059;-72
2021/08/11 09:47:16;;;;;;;1.50;0.20;;;;;;;19.72;100.00;99882.25;5009445;28;20160;-71
2021/08/11 09:50:32;;;;;;;1.65;0.13;;;;;;;19.96;100.00;99876.47;5013131;28;20057;-72
2021/08/11 09:53:38;;;;;;;2.15;0.40;;;;;;;20.06;100.00;99872.69;5014072;28;20060;-72
2021/08/11 09:56:42;;;;;;;0.75;0.30;;;;;;;20.22;100.00;99879.38;5013879;28;20064;-73
2021/08/11 09:59:58;;;;;;;2.00;0.65;;;;;;;20.55;100.00;99880.81;5006135;28;20085;-73
2021/08/11 10:03:03;;;;;;;0.45;0.10;;;;;;;20.84;100.00;99868.38;5013939;28;20188;-74
2021/08/11 10:06:23;;;;;;;5.07;0.20;;;;;;;21.04;100.00;99871.31;5013744;28;20160;-74
2021/08/11 10:09:26;;;;;;;0.77;0.30;;;;;;;20.79;100.00;99875.69;5012117;28;20065;-74
2021/08/11 10:12:31;;;;;;;2.17;0.40;;;;;;;20.00;100.00;99876.91;5013883;28;20455;-74
2021/08/11 10:15:34;;;;;;;1.90;0.40;;;;;;;19.57;100.00;99871.47;5013113;28;20116;-74
2021/08/11 10:18:39;;;;;;;1.48;0.10;;;;;;;19.43;100.00;99887.56;5013153;28;20420;-74
2021/08/11 10:21:48;;;;;;;1.42;0.35;;;;;;;19.19;100.00;99879.16;5005462;28;20046;-73
2021/08/11 10:24:52;;;;;;;3.42;0.57;;;;;;;19.08;100.00;99873.66;5013704;28;20061;-74
2021/08/11 10:27:56;;;;;;;2.92;0.93;;;;;;;19.07;100.00;99868.56;5006928;28;20065;-74
2021/08/11 10:30:59;;;;;;;1.77;0.32;;;;;;;19.28;100.00;99873.13;5012693;28;20081;-74
2021/08/11 10:34:02;;;;;;;0.73;0.30;;;;;;;19.44;100.00;99874.22;5013306;28;20061;-74
2021/08/11 10:37:05;;;;;;;7.30;1.10;;;;;;;19.66;100.00;99877.44;5007646;28;20111;-75
2021/08/11 10:40:09;;;;;;;1.13;0.20;;;;;;;19.71;100.00;99875.84;5013525;28;20060;-74
2021/08/11 10:43:13;;;;;;;1.17;0.30;;;;;;;19.75;100.00;99867.06;5013556;28;20061;-75
2021/08/11 10:46:19;;;;;;;1.95;0.40;;;;;;;19.80;100.00;99872.63;5009112;28;20052;-75
2021/08/11 10:49:24;;;;;;;3.05;0.17;;;;;;;19.82;100.00;99881.31;5005501;28;20515;-75
2021/08/11 10:52:29;;;;;;;2.13;0.40;;;;;;;19.75;100.00;99886.84;5013330;28;20100;-75
2021/08/11 10:55:46;;;;;;;1.90;0.30;;;;;;;19.61;100.00;99883.97;4992953;28;20056;-75
2021/08/11 10:58:49;;;;;;;2.65;0.30;;;;;;;19.73;100.00;99872.50;4993754;28;20684;-75
2021/08/11 11:01:57;;;;;;;1.83;0.47;;;;;;;19.77;100.00;99864.47;4993031;28;20073;-75
2021/08/11 11:05:00;;;;;;;2.95;0.52;;;;;;;19.77;100.00;99861.63;4992946;28;20189;-74
2021/08/11 11:08:15;;;;;;;2.50;0.32;;;;;;;20.03;100.00;99867.34;4993474;28;20117;-74
2021/08/11 11:11:27;;;;;;;1.65;0.30;;;;;;;20.46;100.00;99852.97;4993252;28;20061;-75
2021/08/11 11:14:47;;;;;;;1.85;0.45;;;;;;;21.09;100.00;99853.44;4992916;28;20061;-74
2021/08/11 11:18:10;;;;;;;1.17;0.25;;;;;;;21.48;100.00;99866.75;4992961;28;20065;-74
2021/08/11 11:21:13;;;;;;;0.60;0.20;;;;;;;21.35;100.00;99868.84;4992543;28;20104;-74
2021/08/11 11:24:52;;;;;;;0.20;0.15;;;;;;;21.11;100.00;99856.47;4993347;28;20567;-74
2021/08/11 11:27:56;;;;;;;2.08;0.55;;;;;;;21.02;100.00;99853.31;4953463;28;20070;-74
2021/08/11 11:30:59;;;;;;;2.58;0.63;;;;;;;20.70;100.00;99862.00;4992414;28;20108;-74
2021/08/11 11:34:20;;;;;;;2.05;0.60;;;;;;;20.37;100.00;99856.97;4987127;28;20056;-74
2021/08/11 11:37:24;;;;;;;1.20;0.50;;;;;;;19.95;100.00;99852.31;4991419;28;20117;-74
2021/08/11 11:40:27;;;;;;;1.45;0.20;;;;;;;19.74;100.00;99859.88;4992213;28;20523;-73
2021/08/11 11:43:31;;;;;;;1.35;0.52;;;;;;;19.59;100.00;99863.19;4991962;28;20108;-73
2021/08/11 11:46:47;;;;;;;2.63;0.52;;;;;;;19.48;100.00;99850.03;4991978;28;20061;-73
2021/08/11 11:50:23;;;;;;;2.85;1.08;;;;;;;19.43;100.00;99862.16;4992353;28;20113;-73
2021/08/11 11:53:37;;;;;;;1.08;0.20;;;;;;;19.46;100.00;99858.28;4992659;28;20081;-75
2021/08/11 11:56:40;;;;;;;0.77;0.38;;;;;;;19.51;100.00;99863.06;5011619;28;20149;-74
2021/08/11 11:59:49;;;;;;;1.00;0.40;;;;;;;19.38;100.00;99867.91;5004223;28;20108;-72
2021/08/11 12:02:53;;;;;;;1.83;0.65;;;;;;;19.42;100.00;99866.28;5012037;28;20189;-74
2021/08/11 12:05:56;;;;;;;3.30;1.05;;;;;;;19.84;100.00;99866.66;5005577;28;20065;-75
2021/08/11 12:08:59;;;;;;;1.73;0.52;;;;;;;19.99;100.00;99864.81;5011523;28;20057;-74
2021/08/11 12:12:06;;;;;;;1.60;0.38;;;;;;;19.84;100.00;99867.41;5012265;28;20527;-74
2021/08/11 12:15:20;;;;;;;2.00;0.60;;;;;;;19.50;100.00;99861.53;5011907;28;20165;-74
2021/08/11 12:18:25;;;;;;;2.45;0.30;;;;;;;19.43;100.00;99867.03;5008470;28;20052;-74
2021/08/11 12:21:28;;;;;;;1.67;0.22;;;;;;;19.27;100.00;99865.97;5011679;28;20071;-74
2021/08/11 12:24:45;;;;;;;4.28;0.50;;;;;;;19.23;100.00;99871.16;5011877;28;20057;-74
2021/08/11 12:28:07;;;;;;;0.40;0.20;;;;;;;19.33;100.00;99872.31;5011847;28;20145;-74
2021/08/11 12:31:17;;;;;;;3.72;0.30;;;;;;;19.67;100.00;99876.16;5011319;28;20596;-75
2021/08/11 12:34:20;;;;;;;2.80;0.17;;;;;;;19.70;100.00;99876.38;4997904;28;20145;-73
2021/08/11 12:37:23;;;;;;;1.17;0.13;;;;;;;19.53;100.00;99883.03;4990642;28;20081;-74
2021/08/11 12:40:31;;;;;;;0.95;0.13;;;;;;;19.25;100.00;99876.28;5010915;28;20580;-75
2021/08/11 12:43:37;;;;;;;0.80;0.30;;;;;;;19.10;100.00;99882.38;5007119;28;20061;-75
2021/08/11 12:46:44;;;;;;;0.45;0.30;;;;;;;19.11;100.00;99864.13;5006421;28;20161;-73
2021/08/11 12:49:50;;;;;;;0.80;0.40;;;;;;;19.23;100.00;99865.50;5000811;28;20060;-72
2021/08/11 12:52:57;;;;;;;0.52;0.10;;;;;;;19.38;100.00;99865.81;5001352;28;20049;-73
2021/08/11 12:56:12;;;;;;;0.47;0.10;;;;;;;19.56;100.00;99870.69;4995641;28;20065;-73
2021/08/11 12:59:15;;;;;;;1.27;0.52;;;;;;;19.54;100.00;99867.63;5001849;28;20112;-73
2021/08/11 13:02:20;;;;;;;1.23;0.17;;;;;;;19.47;100.00;99868.25;5000404;28;20112;-74
2021/08/11 13:05:23;;;;;;;0.43;0.25;;;;;;;19.39;100.00;99873.00;5009015;28;20204;-74
2021/08/11 13:08:38;;;;;;;2.70;0.10;;;;;;;19.39;100.00;99866.59;4999034;28;20123;-75
2021/08/11 13:11:50;;;;;;;0.35;0.13;;;;;;;19.25;100.00;99868.53;5005219;28;20417;-74
2021/08/11 13:14:54;;;;;;;6.65;0.15;;;;;;;19.37;100.00;99864.31;4986833;28;20057;-75
2021/08/11 13:18:02;;;;;;;0.25;0.10;;;;;;;19.75;100.00;99847.28;4950788;28;21094;-74
2021/08/11 13:21:06;;;;;;;2.13;0.35;;;;;;;20.25;100.00;99850.00;4952592;28;20109;-73
2021/08/11 13:24:09;;;;;;;0.20;0.10;;;;;;;20.74;100.00;99851.09;4958693;28;20076;-74
2021/08/11 13:27:12;;;;;;;0.82;0.10;;;;;;;20.81;100.00;99850.41;4957063;28;20112;-74
2021/08/11 13:30:17;;;;;;;0.50;0.20;;;;;;;20.73;100.00;99843.91;4957369;28;20190;-74
2021/08/11 13:33:20;;;;;;;2.08;0.20;;;;;;;20.49;100.00;99841.31;4950752;28;20085;-74
2021/08/11 13:36:24;;;;;;;2.47;0.35;;;;;;;20.14;100.00;99842.44;4947469;28;20082;-74
2021/08/11 13:39:27;;;;;;;1.10;0.30;;;;;;;19.81;100.00;99836.63;4948149;28;20699;-74
2021/08/11 13:42:30;;;;;;;2.13;0.30;;;;;;;19.60;100.00;99836.47;4948415;28;20123;-74
2021/08/11 13:45:33;;;;;;;1.33;0.20;;;;;;;19.37;100.00;99838.88;4951250;28;20148;-74
2021/08/11 13:48:36;;;;;;;1.55;0.28;;;;;;;19.19;100.00;99847.38;4951266;28;20128;-74
2021/08/11 13:51:40;;;;;;;3.25;0.38;;;;;;;19.10;100.00;99845.66;4951289;28;20124;-75
2021/08/11 13:54:43;;;;;;;1.40;0.38;;;;;;;19.09;100.00;99844.16;4970869;28;21146;-74
2021/08/11 13:57:46;;;;;;;6.03;0.40;;;;;;;19.13;100.00;99847.44;4963287;28;20116;-73
2021/08/11 14:00:49;;;;;;;3.67;0.68;;;;;;;19.12;100.00;99843.09;4970862;28;20591;-75
2021/08/11 14:03:53;;;;;;;0.65;0.32;;;;;;;19.12;100.00;99842.31;4964957;28;21111;-73
2021/08/11 14:06:57;;;;;;;1.60;0.40;;;;;;;19.23;100.00;99847.81;4973036;28;20829;-73
2021/08/11 14:10:00;;;;;;;1.20;0.70;;;;;;;19.28;100.00;99839.25;4966945;28;20084;-74
2021/08/11 14:13:03;;;;;;;1.10;0.30;;;;;;;19.31;100.00;99843.06;4973491;28;20617;-73
2021/08/11 14:16:07;;;;;;;0.45;0.10;;;;;;;19.33;100.00;99848.94;4972766;28;21126;-74
2021/08/11 14:19:10;;;;;;;0.50;0.10;;;;;;;19.34;100.00;99845.59;4973308;28;20668;-73
2021/08/11 14:22:13;;;;;;;0.50;0.10;;;;;;;19.29;100.00;99846.44;4972622;28;20057;-74